createdAt,value
2019-03-17T00:00:03.044Z,0.00
2019-03-17T00:01:02.991Z,0.00
2019-03-17T00:02:02.979Z,0.00
2019-03-17T00:03:02.990Z,0.00
2019-03-17T00:04:02.980Z,0.00
2019-03-17T00:05:02.974Z,0.00
2019-03-17T00:06:02.976Z,0.00
2019-03-17T00:07:02.930Z,0.00
2019-03-17T00:08:02.973Z,0.00
2019-03-17T00:09:02.912Z,0.00
2019-03-17T00:10:03.028Z,0.00
2019-03-17T00:11:02.922Z,0.00
2019-03-17T00:12:02.886Z,0.00
2019-03-17T00:13:02.875Z,0.00
2019-03-17T00:14:02.854Z,0.00
2019-03-17T00:15:05.542Z,0.00
2019-03-17T00:16:02.873Z,0.00
2019-03-17T00:17:02.812Z,0.00
2019-03-17T00:18:02.802Z,0.00
2019-03-17T00:19:02.791Z,0.00
2019-03-17T00:20:02.795Z,0.00
2019-03-17T00:21:02.805Z,0.00
2019-03-17T00:22:02.778Z,0.00
2019-03-17T00:23:02.748Z,0.00
2019-03-17T00:24:02.746Z,0.00
2019-03-17T00:25:09.013Z,0.00
2019-03-17T00:26:03.750Z,0.00
2019-03-17T00:27:02.711Z,0.00
2019-03-17T00:28:02.703Z,0.00
2019-03-17T00:29:02.683Z,0.00
2019-03-17T00:30:02.669Z,0.00
2019-03-17T00:31:02.661Z,0.00
2019-03-17T00:32:02.671Z,0.00
2019-03-17T00:33:02.648Z,0.00
2019-03-17T00:34:02.627Z,0.00
2019-03-17T00:35:02.613Z,0.00
2019-03-17T00:36:02.636Z,0.00
2019-03-17T00:37:02.596Z,0.00
2019-03-17T00:38:02.582Z,0.00
2019-03-17T00:39:02.581Z,0.00
2019-03-17T00:40:02.564Z,0.00
2019-03-17T00:41:02.564Z,0.00
2019-03-17T00:42:02.564Z,0.00
2019-03-17T00:43:02.531Z,0.00
2019-03-17T00:44:02.527Z,0.00
2019-03-17T00:45:02.523Z,0.00
2019-03-17T00:46:02.505Z,0.00
2019-03-17T00:47:02.512Z,0.00
2019-03-17T00:48:02.470Z,0.00
2019-03-17T00:49:02.477Z,0.00
2019-03-17T00:50:02.457Z,0.00
2019-03-17T00:51:02.439Z,0.00
2019-03-17T00:52:02.489Z,0.00
2019-03-17T00:53:02.427Z,0.00
2019-03-17T00:54:02.407Z,0.00
2019-03-17T00:55:02.396Z,0.00
2019-03-17T00:56:02.385Z,0.00
2019-03-17T00:57:02.395Z,0.00
2019-03-17T00:58:02.362Z,0.00
2019-03-17T00:59:02.347Z,0.00
2019-03-17T01:00:02.345Z,0.00
2019-03-17T01:01:02.327Z,0.00
2019-03-17T01:02:02.355Z,0.00
2019-03-17T01:03:23.355Z,0.00
2019-03-17T01:04:02.296Z,0.00
2019-03-17T01:05:02.291Z,0.00
2019-03-17T01:06:02.282Z,0.00
2019-03-17T01:07:02.273Z,0.00
2019-03-17T01:08:02.278Z,0.00
2019-03-17T01:09:02.240Z,0.00
2019-03-17T01:10:02.247Z,0.00
2019-03-17T01:11:02.230Z,0.00
2019-03-17T01:12:02.248Z,0.00
2019-03-17T01:13:02.202Z,0.00
2019-03-17T01:14:02.190Z,0.00
2019-03-17T01:15:02.178Z,0.00
2019-03-17T01:16:02.161Z,0.00
2019-03-17T01:17:02.157Z,0.00
2019-03-17T01:18:02.167Z,0.00
2019-03-17T01:19:02.132Z,0.00
2019-03-17T01:20:02.127Z,0.00
2019-03-17T01:21:02.106Z,0.00
2019-03-17T01:22:02.096Z,0.00
2019-03-17T01:23:02.127Z,0.00
2019-03-17T01:24:02.073Z,0.00
2019-03-17T01:25:02.067Z,0.00
2019-03-17T01:26:02.060Z,0.00
2019-03-17T01:27:02.039Z,0.00
2019-03-17T01:28:02.042Z,0.00
2019-03-17T01:29:02.049Z,0.00
2019-03-17T01:30:02.009Z,0.00
2019-03-17T01:31:02.000Z,0.00
2019-03-17T01:32:01.985Z,0.00
2019-03-17T01:33:01.974Z,0.00
2019-03-17T01:34:01.992Z,0.00
2019-03-17T01:35:09.011Z,0.00
2019-03-17T01:37:03.051Z,0.00
2019-03-17T01:38:01.925Z,0.00
2019-03-17T01:39:01.938Z,0.00
2019-03-17T01:40:01.905Z,0.00
2019-03-17T01:41:01.883Z,0.00
2019-03-17T01:42:01.878Z,0.00
2019-03-17T01:43:01.871Z,0.00
2019-03-17T01:44:01.873Z,0.00
2019-03-17T01:45:01.851Z,0.00
2019-03-17T01:46:01.833Z,0.00
2019-03-17T01:47:01.829Z,0.00
2019-03-17T01:48:01.809Z,0.00
2019-03-17T01:49:01.827Z,0.00
2019-03-17T01:50:01.795Z,0.00
2019-03-17T01:51:01.772Z,0.00
2019-03-17T01:52:01.765Z,0.00
2019-03-17T01:53:01.752Z,0.00
2019-03-17T01:55:02.881Z,0.00
2019-03-17T01:56:01.850Z,0.00
2019-03-17T01:57:01.839Z,0.00
2019-03-17T01:58:01.819Z,0.00
2019-03-17T01:59:01.811Z,0.00
2019-03-17T02:00:01.816Z,0.00
2019-03-17T02:01:01.669Z,0.00
2019-03-17T02:02:01.658Z,0.00
2019-03-17T02:03:01.641Z,0.00
2019-03-17T02:04:01.635Z,0.00
2019-03-17T02:05:01.646Z,0.00
2019-03-17T02:06:01.609Z,0.00
2019-03-17T02:07:01.598Z,0.00
2019-03-17T02:08:01.600Z,0.00
2019-03-17T02:09:01.589Z,0.00
2019-03-17T02:10:01.689Z,0.00
2019-03-17T02:11:01.577Z,0.00
2019-03-17T02:12:01.545Z,0.00
2019-03-17T02:13:01.534Z,0.00
2019-03-17T02:14:01.523Z,0.00
2019-03-17T02:15:01.579Z,0.00
2019-03-17T02:16:01.516Z,0.00
2019-03-17T02:17:01.492Z,0.00
2019-03-17T02:18:01.476Z,0.00
2019-03-17T02:19:01.469Z,0.00
2019-03-17T02:20:01.490Z,0.00
2019-03-17T02:21:01.483Z,0.00
2019-03-17T02:22:01.452Z,0.00
2019-03-17T02:23:01.424Z,0.00
2019-03-17T02:24:01.419Z,0.00
2019-03-17T02:25:01.435Z,0.00
2019-03-17T02:26:01.421Z,0.00
2019-03-17T02:27:01.383Z,0.00
2019-03-17T02:28:01.373Z,0.00
2019-03-17T02:29:01.361Z,0.00
2019-03-17T02:30:01.362Z,0.00
2019-03-17T02:31:01.369Z,0.00
2019-03-17T02:32:01.324Z,0.00
2019-03-17T02:33:01.317Z,0.00
2019-03-17T02:34:01.310Z,0.00
2019-03-17T02:35:01.291Z,0.00
2019-03-17T02:36:01.304Z,0.00
2019-03-17T02:37:01.270Z,0.00
2019-03-17T02:38:01.265Z,0.00
2019-03-17T02:39:01.247Z,0.00
2019-03-17T02:40:01.238Z,0.00
2019-03-17T02:41:01.252Z,0.00
2019-03-17T02:42:01.213Z,0.00
2019-03-17T02:43:01.219Z,0.00
2019-03-17T02:44:01.193Z,0.00
2019-03-17T02:45:01.201Z,0.00
2019-03-17T02:46:02.977Z,0.00
2019-03-17T02:47:01.163Z,0.00
2019-03-17T02:48:01.149Z,0.00
2019-03-17T02:49:01.139Z,0.00
2019-03-17T02:50:01.134Z,0.00
2019-03-17T02:51:01.141Z,0.00
2019-03-17T02:52:01.120Z,0.00
2019-03-17T02:53:01.092Z,0.00
2019-03-17T02:54:01.084Z,0.00
2019-03-17T02:55:01.081Z,0.00
2019-03-17T02:56:01.087Z,0.00
2019-03-17T02:57:01.051Z,0.00
2019-03-17T02:58:01.043Z,0.00
2019-03-17T02:59:01.025Z,0.00
2019-03-17T03:00:01.033Z,0.00
2019-03-17T03:01:01.030Z,0.00
2019-03-17T03:02:01.019Z,0.00
2019-03-17T03:03:00.986Z,0.00
2019-03-17T03:04:00.985Z,0.00
2019-03-17T03:05:00.959Z,0.00
2019-03-17T03:06:00.977Z,0.00
2019-03-17T03:07:00.938Z,0.00
2019-03-17T03:08:00.932Z,0.00
2019-03-17T03:09:00.936Z,0.00
2019-03-17T03:10:00.903Z,0.00
2019-03-17T03:11:00.895Z,0.00
2019-03-17T03:12:00.918Z,0.00
2019-03-17T03:13:00.879Z,0.00
2019-03-17T03:14:00.862Z,0.00
2019-03-17T03:15:00.858Z,0.00
2019-03-17T03:16:00.837Z,0.00
2019-03-17T03:17:00.970Z,0.00
2019-03-17T03:18:00.820Z,0.00
2019-03-17T03:19:00.890Z,0.00
2019-03-17T03:20:00.792Z,0.00
2019-03-17T03:21:00.783Z,0.00
2019-03-17T03:22:00.792Z,0.00
2019-03-17T03:23:00.757Z,0.00
2019-03-17T03:24:00.777Z,0.00
2019-03-17T03:25:00.738Z,0.00
2019-03-17T03:26:00.735Z,0.00
2019-03-17T03:27:00.716Z,0.00
2019-03-17T03:28:00.733Z,0.00
2019-03-17T03:29:00.695Z,0.00
2019-03-17T03:30:00.692Z,0.00
2019-03-17T03:31:00.732Z,0.00
2019-03-17T03:32:00.669Z,0.00
2019-03-17T03:33:00.677Z,0.00
2019-03-17T03:34:00.639Z,0.00
2019-03-17T03:35:00.983Z,0.00
2019-03-17T03:36:10.631Z,0.00
2019-03-17T03:37:01.609Z,0.00
2019-03-17T03:38:00.629Z,0.00
2019-03-17T03:39:00.587Z,0.00
2019-03-17T03:40:00.674Z,0.00
2019-03-17T03:41:00.575Z,0.00
2019-03-17T03:42:00.551Z,0.00
2019-03-17T03:43:00.573Z,0.00
2019-03-17T03:44:00.554Z,0.00
2019-03-17T03:45:00.645Z,0.00
2019-03-17T03:46:00.507Z,0.00
2019-03-17T03:47:00.505Z,0.00
2019-03-17T03:48:00.516Z,0.00
2019-03-17T03:49:00.469Z,0.00
2019-03-17T03:50:00.482Z,0.00
2019-03-17T03:51:00.450Z,0.00
2019-03-17T03:52:00.435Z,0.00
2019-03-17T03:53:00.431Z,0.00
2019-03-17T03:54:00.442Z,0.00
2019-03-17T03:55:00.476Z,0.00
2019-03-17T03:56:00.393Z,0.00
2019-03-17T03:57:00.382Z,0.00
2019-03-17T03:58:00.378Z,0.00
2019-03-17T03:59:00.390Z,0.00
2019-03-17T04:00:00.529Z,0.00
2019-03-17T04:01:00.355Z,0.00
2019-03-17T04:02:00.326Z,0.00
2019-03-17T04:03:00.315Z,0.00
2019-03-17T04:04:00.319Z,0.00
2019-03-17T04:05:00.647Z,0.00
2019-03-17T04:06:00.292Z,0.00
2019-03-17T04:07:00.270Z,0.00
2019-03-17T04:08:00.263Z,0.00
2019-03-17T04:09:00.248Z,0.00
2019-03-17T04:10:00.705Z,0.00
2019-03-17T04:11:00.234Z,0.00
2019-03-17T04:12:00.220Z,0.00
2019-03-17T04:13:00.206Z,0.00
2019-03-17T04:14:00.198Z,0.00
2019-03-17T04:15:00.525Z,0.00
2019-03-17T04:16:00.175Z,0.00
2019-03-17T04:17:00.163Z,0.00
2019-03-17T04:18:00.152Z,0.00
2019-03-17T04:19:00.137Z,0.00
2019-03-17T04:20:00.451Z,0.00
2019-03-17T04:21:00.117Z,0.00
2019-03-17T04:22:00.102Z,0.00
2019-03-17T04:23:00.106Z,0.00
2019-03-17T04:24:00.098Z,0.00
2019-03-17T04:25:00.287Z,0.00
2019-03-17T04:26:00.068Z,0.00
2019-03-17T04:27:00.050Z,0.00
2019-03-17T04:28:00.057Z,0.00
2019-03-17T04:29:00.023Z,0.00
2019-03-17T04:30:00.106Z,0.00
2019-03-17T04:31:00.050Z,0.00
2019-03-17T04:31:59.998Z,0.00
2019-03-17T04:32:59.993Z,0.00
2019-03-17T04:33:59.970Z,0.00
2019-03-17T04:34:59.999Z,0.00
2019-03-17T04:35:59.979Z,0.00
2019-03-17T04:36:59.942Z,0.00
2019-03-17T04:37:59.939Z,0.00
2019-03-17T04:38:59.923Z,0.00
2019-03-17T04:39:59.935Z,0.00
2019-03-17T04:40:59.891Z,0.00
2019-03-17T04:41:59.921Z,0.00
2019-03-17T04:42:59.871Z,0.00
2019-03-17T04:43:59.864Z,0.00
2019-03-17T04:44:59.852Z,0.00
2019-03-17T04:45:59.863Z,0.00
2019-03-17T04:46:59.824Z,0.00
2019-03-17T04:47:59.835Z,0.00
2019-03-17T04:48:59.907Z,0.00
2019-03-17T04:49:59.809Z,0.00
2019-03-17T04:50:59.810Z,0.00
2019-03-17T04:51:59.773Z,0.00
2019-03-17T04:52:59.759Z,0.00
2019-03-17T04:53:59.749Z,0.00
2019-03-17T04:54:59.768Z,0.00
2019-03-17T04:55:59.727Z,0.00
2019-03-17T04:56:59.713Z,0.00
2019-03-17T04:57:59.716Z,0.00
2019-03-17T04:58:59.694Z,0.00
2019-03-17T04:59:59.708Z,0.00
2019-03-17T05:00:59.672Z,0.00
2019-03-17T05:01:59.686Z,0.00
2019-03-17T05:02:59.665Z,0.00
2019-03-17T05:03:59.644Z,0.00
2019-03-17T05:04:59.627Z,0.00
2019-03-17T05:05:59.614Z,0.00
2019-03-17T05:06:59.650Z,0.00
2019-03-17T05:07:59.592Z,0.00
2019-03-17T05:08:59.580Z,0.00
2019-03-17T05:09:59.571Z,0.00
2019-03-17T05:10:59.568Z,0.00
2019-03-17T05:11:59.588Z,0.00
2019-03-17T05:12:59.535Z,0.00
2019-03-17T05:13:59.527Z,0.00
2019-03-17T05:14:59.511Z,0.00
2019-03-17T05:15:59.503Z,0.00
2019-03-17T05:16:59.534Z,0.00
2019-03-17T05:17:59.482Z,0.00
2019-03-17T05:18:59.472Z,0.00
2019-03-17T05:19:59.457Z,0.00
2019-03-17T05:20:59.455Z,0.00
2019-03-17T05:21:59.467Z,0.00
2019-03-17T05:22:59.425Z,0.00
2019-03-17T05:23:59.414Z,0.00
2019-03-17T05:24:59.403Z,0.00
2019-03-17T05:25:59.402Z,0.00
2019-03-17T05:26:59.414Z,0.00
2019-03-17T05:27:59.404Z,0.00
2019-03-17T05:28:59.362Z,0.00
2019-03-17T05:29:59.349Z,0.00
2019-03-17T05:30:59.347Z,0.00
2019-03-17T05:31:59.340Z,0.00
2019-03-17T05:32:59.345Z,0.00
2019-03-17T05:33:59.305Z,0.00
2019-03-17T05:34:59.292Z,0.00
2019-03-17T05:35:59.290Z,0.00
2019-03-17T05:37:06.006Z,0.00
2019-03-17T05:38:00.285Z,4.00
2019-03-17T05:38:59.251Z,0.00
2019-03-17T05:39:59.251Z,4.00
2019-03-17T05:40:59.234Z,4.00
2019-03-17T05:41:59.219Z,4.00
2019-03-17T05:42:59.231Z,0.00
2019-03-17T05:43:59.215Z,4.00
2019-03-17T05:44:59.182Z,4.00
2019-03-17T05:45:59.170Z,4.00
2019-03-17T05:46:59.159Z,4.00
2019-03-17T05:47:59.153Z,4.00
2019-03-17T05:48:59.163Z,4.00
2019-03-17T05:49:59.124Z,4.00
2019-03-17T05:50:59.122Z,4.00
2019-03-17T05:51:59.110Z,4.00
2019-03-17T05:52:59.091Z,4.00
2019-03-17T05:53:59.112Z,0.00
2019-03-17T05:54:59.071Z,0.00
2019-03-17T05:55:59.061Z,4.00
2019-03-17T05:56:59.060Z,4.00
2019-03-17T05:57:59.043Z,4.00
2019-03-17T05:58:59.058Z,4.00
2019-03-17T05:59:59.020Z,8.00
2019-03-17T06:00:59.070Z,8.00
2019-03-17T06:01:59.065Z,4.00
2019-03-17T06:02:58.981Z,8.00
2019-03-17T06:03:58.995Z,8.00
2019-03-17T06:04:58.961Z,8.00
2019-03-17T06:05:58.947Z,12.00
2019-03-17T06:06:58.936Z,8.00
2019-03-17T06:07:58.933Z,12.00
2019-03-17T06:08:58.950Z,12.00
2019-03-17T06:09:58.931Z,8.00
2019-03-17T06:10:58.893Z,8.00
2019-03-17T06:11:58.894Z,8.00
2019-03-17T06:12:58.869Z,8.00
2019-03-17T06:13:58.885Z,8.00
2019-03-17T06:14:58.871Z,8.00
2019-03-17T06:15:58.839Z,8.00
2019-03-17T06:16:58.823Z,8.00
2019-03-17T06:17:58.817Z,8.00
2019-03-17T06:18:58.806Z,8.00
2019-03-17T06:19:58.821Z,8.00
2019-03-17T06:20:58.784Z,12.00
2019-03-17T06:22:00.518Z,12.00
2019-03-17T06:22:58.772Z,16.00
2019-03-17T06:23:58.747Z,12.00
2019-03-17T06:24:58.766Z,16.00
2019-03-17T06:25:58.726Z,24.00
2019-03-17T06:26:58.716Z,16.00
2019-03-17T06:27:58.704Z,20.00
2019-03-17T06:28:58.695Z,24.00
2019-03-17T06:29:58.716Z,20.00
2019-03-17T06:30:58.678Z,20.00
2019-03-17T06:31:58.665Z,20.00
2019-03-17T06:32:58.657Z,24.00
2019-03-17T06:33:58.642Z,24.00
2019-03-17T06:34:58.669Z,24.00
2019-03-17T06:35:58.623Z,20.00
2019-03-17T06:36:58.611Z,32.00
2019-03-17T06:37:58.603Z,28.00
2019-03-17T06:38:58.585Z,32.00
2019-03-17T06:39:58.598Z,40.00
2019-03-17T06:40:58.586Z,44.00
2019-03-17T06:41:58.557Z,44.00
2019-03-17T06:42:58.539Z,40.00
2019-03-17T06:43:58.532Z,48.00
2019-03-17T06:44:58.544Z,48.00
2019-03-17T06:45:58.534Z,40.00
2019-03-17T06:46:58.493Z,36.00
2019-03-17T06:47:58.485Z,44.00
2019-03-17T06:48:58.475Z,32.00
2019-03-17T06:49:58.463Z,44.00
2019-03-17T06:50:58.481Z,48.00
2019-03-17T06:51:58.444Z,44.00
2019-03-17T06:52:58.433Z,56.00
2019-03-17T06:53:58.421Z,68.00
2019-03-17T06:54:58.404Z,44.00
2019-03-17T06:55:58.418Z,48.00
2019-03-17T06:56:58.389Z,44.00
2019-03-17T06:57:58.388Z,64.00
2019-03-17T06:58:58.364Z,64.00
2019-03-17T06:59:58.353Z,72.00
2019-03-17T07:00:58.372Z,48.00
2019-03-17T07:01:58.366Z,48.00
2019-03-17T07:02:58.319Z,52.00
2019-03-17T07:03:58.304Z,56.00
2019-03-17T07:04:58.308Z,56.00
2019-03-17T07:05:58.289Z,64.00
2019-03-17T07:06:58.302Z,60.00
2019-03-17T07:07:58.260Z,60.00
2019-03-17T07:08:58.254Z,44.00
2019-03-17T07:09:58.248Z,56.00
2019-03-17T07:10:58.234Z,44.00
2019-03-17T07:11:58.243Z,60.00
2019-03-17T07:12:58.210Z,48.00
2019-03-17T07:13:58.198Z,48.00
2019-03-17T07:14:58.194Z,40.00
2019-03-17T07:15:58.177Z,36.00
2019-03-17T07:16:58.212Z,28.00
2019-03-17T07:17:58.154Z,20.00
2019-03-17T07:18:58.145Z,20.00
2019-03-17T07:19:58.135Z,28.00
2019-03-17T07:20:58.122Z,32.00
2019-03-17T07:21:58.135Z,44.00
2019-03-17T07:22:58.178Z,48.00
2019-03-17T07:23:58.082Z,52.00
2019-03-17T07:24:58.082Z,48.00
2019-03-17T07:25:58.060Z,40.00
2019-03-17T07:26:58.163Z,40.00
2019-03-17T07:27:58.038Z,36.00
2019-03-17T07:28:58.032Z,48.00
2019-03-17T07:29:58.024Z,44.00
2019-03-17T07:30:58.013Z,36.00
2019-03-17T07:31:58.020Z,24.00
2019-03-17T07:32:57.983Z,40.00
2019-03-17T07:33:57.972Z,56.00
2019-03-17T07:34:57.964Z,56.00
2019-03-17T07:35:57.962Z,56.00
2019-03-17T07:36:57.983Z,56.00
2019-03-17T07:37:57.933Z,64.00
2019-03-17T07:39:10.841Z,68.00
2019-03-17T07:39:58.909Z,80.00
2019-03-17T07:40:57.903Z,76.00
2019-03-17T07:41:57.891Z,60.00
2019-03-17T07:42:57.901Z,52.00
2019-03-17T07:43:57.863Z,56.00
2019-03-17T07:44:57.857Z,60.00
2019-03-17T07:45:57.849Z,56.00
2019-03-17T07:46:57.839Z,52.00
2019-03-17T07:47:57.848Z,52.00
2019-03-17T07:48:57.812Z,60.00
2019-03-17T07:49:57.797Z,72.00
2019-03-17T07:50:57.789Z,88.00
2019-03-17T07:51:57.783Z,108.00
2019-03-17T07:52:57.789Z,120.00
2019-03-17T07:53:57.766Z,116.00
2019-03-17T07:54:57.745Z,112.00
2019-03-17T07:55:57.740Z,116.00
2019-03-17T07:56:57.718Z,116.00
2019-03-17T07:57:57.748Z,108.00
2019-03-17T07:58:57.727Z,116.00
2019-03-17T07:59:57.697Z,132.00
2019-03-17T08:00:57.677Z,128.00
2019-03-17T08:01:57.663Z,132.00
2019-03-17T08:02:57.658Z,136.00
2019-03-17T08:03:57.680Z,136.00
2019-03-17T08:04:57.635Z,140.00
2019-03-17T08:05:57.621Z,144.00
2019-03-17T08:06:57.620Z,144.00
2019-03-17T08:08:08.667Z,152.00
2019-03-17T08:08:58.615Z,160.00
2019-03-17T08:09:57.597Z,160.00
2019-03-17T08:10:57.584Z,160.00
2019-03-17T08:11:57.554Z,156.00
2019-03-17T08:12:57.547Z,156.00
2019-03-17T08:13:57.563Z,156.00
2019-03-17T08:14:57.883Z,160.00
2019-03-17T08:15:57.512Z,176.00
2019-03-17T08:16:57.502Z,192.00
2019-03-17T08:17:57.486Z,216.00
2019-03-17T08:18:57.533Z,228.00
2019-03-17T08:19:57.463Z,236.00
2019-03-17T08:20:57.460Z,248.00
2019-03-17T08:21:57.447Z,260.00
2019-03-17T08:22:57.436Z,256.00
2019-03-17T08:23:57.427Z,236.00
2019-03-17T08:24:57.432Z,220.00
2019-03-17T08:25:57.400Z,200.00
2019-03-17T08:26:57.385Z,184.00
2019-03-17T08:27:57.379Z,168.00
2019-03-17T08:28:57.390Z,156.00
2019-03-17T08:29:57.390Z,152.00
2019-03-17T08:30:57.340Z,152.00
2019-03-17T08:31:57.334Z,168.00
2019-03-17T08:32:57.326Z,180.00
2019-03-17T08:33:57.315Z,188.00
2019-03-17T08:34:57.334Z,188.00
2019-03-17T08:35:57.294Z,192.00
2019-03-17T08:36:57.282Z,192.00
2019-03-17T08:37:57.265Z,208.00
2019-03-17T08:38:57.256Z,224.00
2019-03-17T08:39:57.289Z,256.00
2019-03-17T08:40:57.256Z,300.00
2019-03-17T08:41:57.221Z,364.00
2019-03-17T08:42:57.208Z,380.00
2019-03-17T08:43:57.206Z,396.00
2019-03-17T08:44:57.219Z,448.00
2019-03-17T08:45:57.186Z,504.00
2019-03-17T08:46:57.165Z,532.00
2019-03-17T08:47:58.696Z,504.00
2019-03-17T08:48:57.194Z,400.00
2019-03-17T08:49:57.165Z,332.00
2019-03-17T08:50:57.125Z,312.00
2019-03-17T08:51:57.158Z,328.00
2019-03-17T08:52:57.103Z,384.00
2019-03-17T08:53:57.090Z,448.00
2019-03-17T08:54:57.111Z,452.00
2019-03-17T08:55:57.095Z,396.00
2019-03-17T08:56:57.067Z,420.00
2019-03-17T08:57:57.052Z,404.00
2019-03-17T08:58:57.039Z,392.00
2019-03-17T08:59:57.045Z,364.00
2019-03-17T09:00:57.045Z,328.00
2019-03-17T09:01:57.001Z,296.00
2019-03-17T09:02:57.001Z,272.00
2019-03-17T09:03:56.983Z,288.00
2019-03-17T09:04:56.981Z,296.00
2019-03-17T09:05:56.987Z,324.00
2019-03-17T09:06:56.959Z,332.00
2019-03-17T09:07:56.934Z,324.00
2019-03-17T09:08:56.926Z,320.00
2019-03-17T09:09:56.912Z,324.00
2019-03-17T09:10:56.937Z,340.00
2019-03-17T09:11:56.916Z,324.00
2019-03-17T09:12:56.895Z,292.00
2019-03-17T09:13:56.868Z,288.00
2019-03-17T09:14:56.862Z,300.00
2019-03-17T09:15:56.876Z,288.00
2019-03-17T09:16:56.843Z,312.00
2019-03-17T09:17:56.828Z,308.00
2019-03-17T09:18:56.825Z,296.00
2019-03-17T09:19:56.813Z,304.00
2019-03-17T09:20:56.905Z,312.00
2019-03-17T09:21:56.782Z,296.00
2019-03-17T09:22:56.783Z,276.00
2019-03-17T09:23:56.767Z,264.00
2019-03-17T09:24:56.755Z,264.00
2019-03-17T09:25:56.761Z,256.00
2019-03-17T09:26:56.752Z,244.00
2019-03-17T09:27:56.716Z,244.00
2019-03-17T09:28:56.710Z,264.00
2019-03-17T09:29:56.694Z,280.00
2019-03-17T09:30:56.684Z,276.00
2019-03-17T09:31:56.705Z,272.00
2019-03-17T09:32:56.661Z,284.00
2019-03-17T09:33:56.652Z,288.00
2019-03-17T09:34:56.645Z,280.00
2019-03-17T09:35:56.640Z,296.00
2019-03-17T09:36:56.659Z,304.00
2019-03-17T09:37:56.607Z,308.00
2019-03-17T09:38:56.600Z,308.00
2019-03-17T09:39:56.590Z,320.00
2019-03-17T09:40:56.579Z,352.00
2019-03-17T09:41:56.597Z,400.00
2019-03-17T09:42:56.553Z,404.00
2019-03-17T09:43:56.549Z,428.00
2019-03-17T09:44:56.528Z,400.00
2019-03-17T09:45:56.526Z,352.00
2019-03-17T09:46:56.539Z,316.00
2019-03-17T09:47:56.520Z,300.00
2019-03-17T09:48:56.498Z,232.00
2019-03-17T09:49:56.484Z,220.00
2019-03-17T09:50:56.463Z,300.00
2019-03-17T09:51:56.454Z,336.00
2019-03-17T09:52:56.462Z,352.00
2019-03-17T09:53:56.427Z,352.00
2019-03-17T09:54:56.440Z,352.00
2019-03-17T09:55:56.419Z,368.00
2019-03-17T09:56:56.404Z,396.00
2019-03-17T09:57:56.422Z,420.00
2019-03-17T09:58:56.383Z,440.00
2019-03-17T09:59:56.361Z,540.00
2019-03-17T10:00:56.350Z,460.00
2019-03-17T10:01:56.343Z,436.00
2019-03-17T10:02:56.372Z,368.00
2019-03-17T10:03:56.330Z,324.00
2019-03-17T10:04:56.310Z,304.00
2019-03-17T10:05:56.300Z,328.00
2019-03-17T10:06:56.284Z,284.00
2019-03-17T10:07:56.310Z,264.00
2019-03-17T10:09:00.341Z,368.00
2019-03-17T10:09:56.264Z,396.00
2019-03-17T10:10:56.245Z,368.00
2019-03-17T10:11:56.237Z,336.00
2019-03-17T10:12:56.251Z,324.00
2019-03-17T10:13:56.215Z,424.00
2019-03-17T10:14:56.205Z,600.00
2019-03-17T10:15:56.189Z,200.00
2019-03-17T10:16:56.173Z,212.00
2019-03-17T10:17:56.285Z,176.00
2019-03-17T10:18:56.164Z,252.00
2019-03-17T10:19:56.143Z,228.00
2019-03-17T10:20:56.138Z,228.00
2019-03-17T10:21:56.122Z,208.00
2019-03-17T10:22:56.108Z,328.00
2019-03-17T10:23:56.280Z,248.00
2019-03-17T10:24:56.091Z,1140.00
2019-03-17T10:25:56.078Z,272.00
2019-03-17T10:26:56.065Z,200.00
2019-03-17T10:27:56.059Z,200.00
2019-03-17T10:28:56.077Z,180.00
2019-03-17T10:29:56.059Z,148.00
2019-03-17T10:30:56.025Z,164.00
2019-03-17T10:31:56.017Z,140.00
2019-03-17T10:32:56.012Z,184.00
2019-03-17T10:33:56.023Z,212.00
2019-03-17T10:34:56.008Z,196.00
2019-03-17T10:35:55.967Z,224.00
2019-03-17T10:36:55.957Z,208.00
2019-03-17T10:37:55.954Z,208.00
2019-03-17T10:38:55.980Z,204.00
2019-03-17T10:39:55.935Z,192.00
2019-03-17T10:40:55.912Z,184.00
2019-03-17T10:41:55.896Z,176.00
2019-03-17T10:42:55.895Z,176.00
2019-03-17T10:43:55.880Z,176.00
2019-03-17T10:44:55.905Z,176.00
2019-03-17T10:45:55.858Z,196.00
2019-03-17T10:46:55.854Z,228.00
2019-03-17T10:47:55.841Z,296.00
2019-03-17T10:48:55.839Z,796.00
2019-03-17T10:49:55.848Z,3220.00
2019-03-17T10:50:55.803Z,1116.00
2019-03-17T10:51:55.793Z,516.00
2019-03-17T10:52:55.776Z,636.00
2019-03-17T10:53:55.774Z,276.00
2019-03-17T10:54:55.797Z,296.00
2019-03-17T10:55:55.754Z,316.00
2019-03-17T10:56:55.736Z,336.00
2019-03-17T10:57:55.760Z,480.00
2019-03-17T10:58:55.717Z,1264.00
2019-03-17T10:59:55.721Z,1508.00
2019-03-17T11:00:55.727Z,3552.00
2019-03-17T11:01:55.690Z,1380.00
2019-03-17T11:02:55.679Z,972.00
2019-03-17T11:03:55.667Z,2760.00
2019-03-17T11:04:55.658Z,1032.00
2019-03-17T11:05:55.664Z,2360.00
2019-03-17T11:06:55.633Z,2352.00
2019-03-17T11:07:55.618Z,5996.00
2019-03-17T11:08:55.601Z,4840.00
2019-03-17T11:09:55.594Z,4552.00
2019-03-17T11:10:55.612Z,5540.00
2019-03-17T11:11:55.577Z,3596.00
2019-03-17T11:12:55.566Z,5440.00
2019-03-17T11:13:55.567Z,4760.00
2019-03-17T11:14:55.553Z,2316.00
2019-03-17T11:15:55.555Z,2656.00
2019-03-17T11:16:55.540Z,2360.00
2019-03-17T11:17:55.519Z,2740.00
2019-03-17T11:18:55.498Z,2644.00
2019-03-17T11:19:55.480Z,3528.00
2019-03-17T11:20:55.496Z,3460.00
2019-03-17T11:21:55.462Z,3180.00
2019-03-17T11:22:55.453Z,3160.00
2019-03-17T11:23:55.449Z,2352.00
2019-03-17T11:24:55.432Z,3196.00
2019-03-17T11:25:55.444Z,2412.00
2019-03-17T11:26:55.832Z,2500.00
2019-03-17T11:27:55.395Z,2816.00
2019-03-17T11:28:55.385Z,3276.00
2019-03-17T11:29:55.374Z,1572.00
2019-03-17T11:30:55.368Z,1040.00
2019-03-17T11:31:55.391Z,1360.00
2019-03-17T11:32:55.351Z,812.00
2019-03-17T11:33:55.338Z,1436.00
2019-03-17T11:34:55.328Z,1164.00
2019-03-17T11:35:55.332Z,368.00
2019-03-17T11:36:55.331Z,232.00
2019-03-17T11:37:55.288Z,164.00
2019-03-17T11:38:55.272Z,168.00
2019-03-17T11:39:55.276Z,240.00
2019-03-17T11:40:55.263Z,288.00
2019-03-17T11:41:55.273Z,260.00
2019-03-17T11:42:55.236Z,204.00
2019-03-17T11:43:55.229Z,196.00
2019-03-17T11:44:55.219Z,216.00
2019-03-17T11:45:55.200Z,212.00
2019-03-17T11:46:55.226Z,220.00
2019-03-17T11:47:55.183Z,228.00
2019-03-17T11:48:55.205Z,240.00
2019-03-17T11:49:55.159Z,312.00
2019-03-17T11:50:55.150Z,684.00
2019-03-17T11:51:55.156Z,964.00
2019-03-17T11:52:55.123Z,824.00
2019-03-17T11:53:55.122Z,560.00
2019-03-17T11:54:55.094Z,340.00
2019-03-17T11:55:55.092Z,276.00
2019-03-17T11:56:55.112Z,188.00
2019-03-17T11:57:55.108Z,172.00
2019-03-17T11:58:55.055Z,164.00
2019-03-17T11:59:55.104Z,208.00
2019-03-17T12:00:55.166Z,260.00
2019-03-17T12:01:55.064Z,220.00
2019-03-17T12:02:55.018Z,212.00
2019-03-17T12:03:55.015Z,220.00
2019-03-17T12:04:55.007Z,220.00
2019-03-17T12:05:54.979Z,224.00
2019-03-17T12:06:54.975Z,236.00
2019-03-17T12:07:55.303Z,228.00
2019-03-17T12:08:54.944Z,216.00
2019-03-17T12:09:54.965Z,208.00
2019-03-17T12:10:54.935Z,228.00
2019-03-17T12:11:54.914Z,268.00
2019-03-17T12:12:54.921Z,396.00
2019-03-17T12:13:54.912Z,436.00
2019-03-17T12:14:54.894Z,444.00
2019-03-17T12:15:54.873Z,580.00
2019-03-17T12:16:54.867Z,588.00
2019-03-17T12:17:54.892Z,576.00
2019-03-17T12:18:54.834Z,632.00
2019-03-17T12:19:54.826Z,1416.00
2019-03-17T12:20:54.822Z,1088.00
2019-03-17T12:21:54.801Z,812.00
2019-03-17T12:22:54.791Z,892.00
2019-03-17T12:23:54.831Z,912.00
2019-03-17T12:24:54.763Z,940.00
2019-03-17T12:25:54.753Z,900.00
2019-03-17T12:26:54.754Z,844.00
2019-03-17T12:27:54.743Z,1276.00
2019-03-17T12:28:54.750Z,980.00
2019-03-17T12:29:54.707Z,1140.00
2019-03-17T12:30:54.696Z,1060.00
2019-03-17T12:31:54.694Z,916.00
2019-03-17T12:32:54.701Z,892.00
2019-03-17T12:33:54.696Z,960.00
2019-03-17T12:34:54.670Z,1024.00
2019-03-17T12:35:54.648Z,1016.00
2019-03-17T12:36:54.631Z,1012.00
2019-03-17T12:37:54.640Z,1052.00
2019-03-17T12:38:54.662Z,1148.00
2019-03-17T12:40:02.331Z,868.00
2019-03-17T12:40:55.592Z,1320.00
2019-03-17T12:41:54.581Z,1184.00
2019-03-17T12:42:54.575Z,1004.00
2019-03-17T12:43:54.565Z,984.00
2019-03-17T12:44:54.582Z,680.00
2019-03-17T12:45:54.528Z,956.00
2019-03-17T12:46:54.524Z,940.00
2019-03-17T12:47:54.521Z,936.00
2019-03-17T12:48:54.522Z,928.00
2019-03-17T12:49:54.532Z,908.00
2019-03-17T12:50:54.477Z,912.00
2019-03-17T12:51:54.498Z,844.00
2019-03-17T12:52:54.466Z,980.00
2019-03-17T12:53:54.448Z,956.00
2019-03-17T12:54:54.432Z,968.00